sensor_id;sensor_type;location;lat;lon;timestamp;P1;durP1;ratioP1;P2;durP2;ratioP2
58354;SDS011;44160;49.080;19.302;2023-06-26T00:01:17;5.93;;;4.40;;
58354;SDS011;44160;49.080;19.302;2023-06-26T00:03:47;6.47;;;4.65;;
58354;SDS011;44160;49.080;19.302;2023-06-26T00:06:13;9.70;;;4.82;;
58354;SDS011;44160;49.080;19.302;2023-06-26T00:08:39;6.97;;;5.32;;
58354;SDS011;44160;49.080;19.302;2023-06-26T00:11:05;6.10;;;4.60;;
58354;SDS011;44160;49.080;19.302;2023-06-26T00:13:32;6.90;;;4.25;;
58354;SDS011;44160;49.080;19.302;2023-06-26T00:15:58;6.00;;;4.55;;
58354;SDS011;44160;49.080;19.302;2023-06-26T00:18:28;10.30;;;4.63;;
58354;SDS011;44160;49.080;19.302;2023-06-26T00:20:54;10.40;;;5.07;;
58354;SDS011;44160;49.080;19.302;2023-06-26T00:23:20;7.70;;;4.72;;
58354;SDS011;44160;49.080;19.302;2023-06-26T00:25:46;7.85;;;5.28;;
58354;SDS011;44160;49.080;19.302;2023-06-26T00:28:12;7.68;;;5.20;;
58354;SDS011;44160;49.080;19.302;2023-06-26T00:30:38;6.40;;;4.35;;
58354;SDS011;44160;49.080;19.302;2023-06-26T00:33:04;10.90;;;4.45;;
58354;SDS011;44160;49.080;19.302;2023-06-26T00:35:30;9.18;;;4.35;;
58354;SDS011;44160;49.080;19.302;2023-06-26T00:37:56;5.13;;;4.10;;
58354;SDS011;44160;49.080;19.302;2023-06-26T00:40:22;6.22;;;4.32;;
58354;SDS011;44160;49.080;19.302;2023-06-26T00:42:49;8.55;;;4.32;;
58354;SDS011;44160;49.080;19.302;2023-06-26T00:45:15;13.13;;;3.95;;
58354;SDS011;44160;49.080;19.302;2023-06-26T00:47:41;7.45;;;4.70;;
58354;SDS011;44160;49.080;19.302;2023-06-26T00:50:07;6.90;;;4.72;;
58354;SDS011;44160;49.080;19.302;2023-06-26T00:52:34;7.30;;;4.72;;
58354;SDS011;44160;49.080;19.302;2023-06-26T00:55:00;7.75;;;4.90;;
58354;SDS011;44160;49.080;19.302;2023-06-26T00:57:26;8.85;;;4.75;;
58354;SDS011;44160;49.080;19.302;2023-06-26T00:59:52;7.00;;;4.45;;
58354;SDS011;44160;49.080;19.302;2023-06-26T01:02:18;9.15;;;4.93;;
58354;SDS011;44160;49.080;19.302;2023-06-26T01:04:50;10.00;;;4.72;;
58354;SDS011;44160;49.080;19.302;2023-06-26T01:07:17;9.48;;;4.55;;
58354;SDS011;44160;49.080;19.302;2023-06-26T01:09:45;6.22;;;4.60;;
58354;SDS011;44160;49.080;19.302;2023-06-26T01:12:12;7.32;;;4.72;;
58354;SDS011;44160;49.080;19.302;2023-06-26T01:14:38;7.13;;;4.78;;
58354;SDS011;44160;49.080;19.302;2023-06-26T01:17:04;6.18;;;4.93;;
58354;SDS011;44160;49.080;19.302;2023-06-26T01:19:30;6.30;;;4.30;;
58354;SDS011;44160;49.080;19.302;2023-06-26T01:22:09;9.15;;;4.68;;
58354;SDS011;44160;49.080;19.302;2023-06-26T01:24:42;6.88;;;4.88;;
58354;SDS011;44160;49.080;19.302;2023-06-26T01:27:10;7.67;;;5.17;;
58354;SDS011;44160;49.080;19.302;2023-06-26T01:29:37;7.47;;;5.05;;
58354;SDS011;44160;49.080;19.302;2023-06-26T01:32:03;10.43;;;5.05;;
58354;SDS011;44160;49.080;19.302;2023-06-26T01:34:30;7.35;;;5.07;;
58354;SDS011;44160;49.080;19.302;2023-06-26T01:36:56;9.70;;;5.18;;
58354;SDS011;44160;49.080;19.302;2023-06-26T01:39:22;7.85;;;4.72;;
58354;SDS011;44160;49.080;19.302;2023-06-26T01:41:48;6.72;;;4.32;;
58354;SDS011;44160;49.080;19.302;2023-06-26T01:44:36;6.45;;;5.10;;
58354;SDS011;44160;49.080;19.302;2023-06-26T01:47:04;13.15;;;5.20;;
58354;SDS011;44160;49.080;19.302;2023-06-26T01:49:33;7.97;;;4.78;;
58354;SDS011;44160;49.080;19.302;2023-06-26T01:52:14;11.50;;;5.68;;
58354;SDS011;44160;49.080;19.302;2023-06-26T01:54:47;8.98;;;4.95;;
58354;SDS011;44160;49.080;19.302;2023-06-26T01:57:14;7.97;;;4.93;;
58354;SDS011;44160;49.080;19.302;2023-06-26T01:59:41;7.93;;;4.75;;
58354;SDS011;44160;49.080;19.302;2023-06-26T02:02:07;5.50;;;4.10;;
58354;SDS011;44160;49.080;19.302;2023-06-26T02:04:33;8.77;;;4.97;;
58354;SDS011;44160;49.080;19.302;2023-06-26T02:07:00;7.57;;;5.15;;
58354;SDS011;44160;49.080;19.302;2023-06-26T02:09:26;6.78;;;4.38;;
58354;SDS011;44160;49.080;19.302;2023-06-26T02:11:52;8.40;;;5.05;;
58354;SDS011;44160;49.080;19.302;2023-06-26T02:14:18;6.25;;;4.63;;
58354;SDS011;44160;49.080;19.302;2023-06-26T02:16:44;7.85;;;4.93;;
58354;SDS011;44160;49.080;19.302;2023-06-26T02:19:10;10.07;;;5.00;;
58354;SDS011;44160;49.080;19.302;2023-06-26T02:21:36;8.75;;;4.32;;
58354;SDS011;44160;49.080;19.302;2023-06-26T02:24:04;7.22;;;4.88;;
58354;SDS011;44160;49.080;19.302;2023-06-26T02:26:30;8.15;;;5.00;;
58354;SDS011;44160;49.080;19.302;2023-06-26T02:28:56;7.65;;;5.03;;
58354;SDS011;44160;49.080;19.302;2023-06-26T02:31:22;5.88;;;4.35;;
58354;SDS011;44160;49.080;19.302;2023-06-26T02:33:48;9.43;;;5.18;;
58354;SDS011;44160;49.080;19.302;2023-06-26T02:36:14;6.68;;;4.95;;
58354;SDS011;44160;49.080;19.302;2023-06-26T02:38:40;7.95;;;4.78;;
58354;SDS011;44160;49.080;19.302;2023-06-26T02:41:06;6.97;;;5.03;;
58354;SDS011;44160;49.080;19.302;2023-06-26T02:43:32;7.75;;;5.07;;
58354;SDS011;44160;49.080;19.302;2023-06-26T02:45:58;7.30;;;5.30;;
58354;SDS011;44160;49.080;19.302;2023-06-26T02:48:24;7.55;;;5.25;;
58354;SDS011;44160;49.080;19.302;2023-06-26T02:50:51;13.30;;;5.72;;
58354;SDS011;44160;49.080;19.302;2023-06-26T02:53:17;10.85;;;5.50;;
58354;SDS011;44160;49.080;19.302;2023-06-26T02:55:43;10.50;;;6.00;;
58354;SDS011;44160;49.080;19.302;2023-06-26T02:58:09;10.15;;;6.00;;
58354;SDS011;44160;49.080;19.302;2023-06-26T03:00:35;10.05;;;6.40;;
58354;SDS011;44160;49.080;19.302;2023-06-26T03:03:06;6.88;;;5.00;;
58354;SDS011;44160;49.080;19.302;2023-06-26T03:05:32;7.93;;;4.85;;
58354;SDS011;44160;49.080;19.302;2023-06-26T03:07:58;7.32;;;5.20;;
58354;SDS011;44160;49.080;19.302;2023-06-26T03:10:24;10.70;;;6.32;;
58354;SDS011;44160;49.080;19.302;2023-06-26T03:12:50;9.80;;;4.97;;
58354;SDS011;44160;49.080;19.302;2023-06-26T03:15:16;7.35;;;5.50;;
58354;SDS011;44160;49.080;19.302;2023-06-26T03:17:42;8.43;;;5.55;;
58354;SDS011;44160;49.080;19.302;2023-06-26T03:20:09;10.32;;;5.00;;
58354;SDS011;44160;49.080;19.302;2023-06-26T03:22:35;8.43;;;5.47;;
58354;SDS011;44160;49.080;19.302;2023-06-26T03:25:02;11.25;;;5.40;;
58354;SDS011;44160;49.080;19.302;2023-06-26T03:27:28;10.75;;;5.97;;
58354;SDS011;44160;49.080;19.302;2023-06-26T03:29:54;12.13;;;5.03;;
58354;SDS011;44160;49.080;19.302;2023-06-26T03:32:20;7.75;;;5.15;;
58354;SDS011;44160;49.080;19.302;2023-06-26T03:34:46;8.73;;;5.43;;
58354;SDS011;44160;49.080;19.302;2023-06-26T03:37:12;10.40;;;5.85;;
58354;SDS011;44160;49.080;19.302;2023-06-26T03:39:38;9.32;;;5.15;;
58354;SDS011;44160;49.080;19.302;2023-06-26T03:42:04;7.82;;;4.85;;
58354;SDS011;44160;49.080;19.302;2023-06-26T03:44:30;8.82;;;5.07;;
58354;SDS011;44160;49.080;19.302;2023-06-26T03:46:56;6.70;;;5.03;;
58354;SDS011;44160;49.080;19.302;2023-06-26T03:49:22;7.20;;;5.10;;
58354;SDS011;44160;49.080;19.302;2023-06-26T03:51:48;8.02;;;5.13;;
58354;SDS011;44160;49.080;19.302;2023-06-26T03:54:15;6.15;;;4.53;;
58354;SDS011;44160;49.080;19.302;2023-06-26T03:56:41;6.53;;;4.68;;
58354;SDS011;44160;49.080;19.302;2023-06-26T03:59:07;8.63;;;4.68;;
58354;SDS011;44160;49.080;19.302;2023-06-26T04:01:33;9.70;;;4.65;;
58354;SDS011;44160;49.080;19.302;2023-06-26T04:04:01;6.57;;;4.78;;
58354;SDS011;44160;49.080;19.302;2023-06-26T04:06:29;7.95;;;4.88;;
58354;SDS011;44160;49.080;19.302;2023-06-26T04:08:56;6.15;;;3.92;;
58354;SDS011;44160;49.080;19.302;2023-06-26T04:11:23;8.57;;;4.57;;
58354;SDS011;44160;49.080;19.302;2023-06-26T04:13:49;8.18;;;4.72;;
58354;SDS011;44160;49.080;19.302;2023-06-26T04:16:15;7.63;;;4.40;;
58354;SDS011;44160;49.080;19.302;2023-06-26T04:18:41;6.18;;;4.60;;
58354;SDS011;44160;49.080;19.302;2023-06-26T04:21:08;8.50;;;5.07;;
58354;SDS011;44160;49.080;19.302;2023-06-26T04:23:34;7.22;;;4.13;;
58354;SDS011;44160;49.080;19.302;2023-06-26T04:26:00;9.05;;;4.00;;
58354;SDS011;44160;49.080;19.302;2023-06-26T04:28:27;9.85;;;4.38;;
58354;SDS011;44160;49.080;19.302;2023-06-26T04:30:54;8.05;;;4.95;;
58354;SDS011;44160;49.080;19.302;2023-06-26T04:33:20;7.43;;;4.90;;
58354;SDS011;44160;49.080;19.302;2023-06-26T04:35:46;6.55;;;3.90;;
58354;SDS011;44160;49.080;19.302;2023-06-26T04:38:14;6.93;;;4.00;;
58354;SDS011;44160;49.080;19.302;2023-06-26T04:40:40;6.88;;;4.35;;
58354;SDS011;44160;49.080;19.302;2023-06-26T04:43:06;6.10;;;4.38;;
58354;SDS011;44160;49.080;19.302;2023-06-26T04:45:32;6.50;;;3.90;;
58354;SDS011;44160;49.080;19.302;2023-06-26T04:47:58;10.55;;;4.50;;
58354;SDS011;44160;49.080;19.302;2023-06-26T04:50:25;6.60;;;4.30;;
58354;SDS011;44160;49.080;19.302;2023-06-26T04:52:53;6.43;;;4.30;;
58354;SDS011;44160;49.080;19.302;2023-06-26T04:55:19;6.32;;;4.30;;
58354;SDS011;44160;49.080;19.302;2023-06-26T04:57:46;10.30;;;4.60;;
58354;SDS011;44160;49.080;19.302;2023-06-26T05:00:13;5.25;;;3.97;;
58354;SDS011;44160;49.080;19.302;2023-06-26T05:02:40;5.75;;;3.92;;
58354;SDS011;44160;49.080;19.302;2023-06-26T05:05:06;5.30;;;3.95;;
58354;SDS011;44160;49.080;19.302;2023-06-26T05:07:32;5.13;;;3.70;;
58354;SDS011;44160;49.080;19.302;2023-06-26T05:09:58;7.40;;;4.25;;
58354;SDS011;44160;49.080;19.302;2023-06-26T05:12:24;5.15;;;4.00;;
58354;SDS011;44160;49.080;19.302;2023-06-26T05:14:50;12.48;;;4.47;;
58354;SDS011;44160;49.080;19.302;2023-06-26T05:17:16;6.10;;;4.20;;
58354;SDS011;44160;49.080;19.302;2023-06-26T05:19:42;8.25;;;4.53;;
58354;SDS011;44160;49.080;19.302;2023-06-26T05:22:08;7.45;;;4.10;;
58354;SDS011;44160;49.080;19.302;2023-06-26T05:24:35;5.20;;;3.85;;
58354;SDS011;44160;49.080;19.302;2023-06-26T05:27:01;5.03;;;4.10;;
58354;SDS011;44160;49.080;19.302;2023-06-26T05:29:27;11.45;;;4.50;;
58354;SDS011;44160;49.080;19.302;2023-06-26T05:31:54;6.35;;;4.38;;
58354;SDS011;44160;49.080;19.302;2023-06-26T05:34:22;5.40;;;4.05;;
58354;SDS011;44160;49.080;19.302;2023-06-26T05:36:50;6.50;;;4.07;;
58354;SDS011;44160;49.080;19.302;2023-06-26T05:39:16;4.90;;;3.70;;
58354;SDS011;44160;49.080;19.302;2023-06-26T05:41:46;6.63;;;3.50;;
58354;SDS011;44160;49.080;19.302;2023-06-26T05:44:12;6.25;;;3.85;;
58354;SDS011;44160;49.080;19.302;2023-06-26T05:46:38;7.20;;;4.03;;
58354;SDS011;44160;49.080;19.302;2023-06-26T05:49:04;6.32;;;3.60;;
58354;SDS011;44160;49.080;19.302;2023-06-26T05:51:30;7.07;;;3.60;;
58354;SDS011;44160;49.080;19.302;2023-06-26T05:53:58;4.65;;;3.95;;
58354;SDS011;44160;49.080;19.302;2023-06-26T05:56:24;8.27;;;4.38;;
58354;SDS011;44160;49.080;19.302;2023-06-26T05:58:51;7.97;;;4.28;;
58354;SDS011;44160;49.080;19.302;2023-06-26T06:01:18;7.60;;;4.00;;
58354;SDS011;44160;49.080;19.302;2023-06-26T06:03:45;4.82;;;3.85;;
58354;SDS011;44160;49.080;19.302;2023-06-26T06:06:11;5.07;;;4.43;;
58354;SDS011;44160;49.080;19.302;2023-06-26T06:08:37;5.72;;;4.20;;
58354;SDS011;44160;49.080;19.302;2023-06-26T06:11:03;5.85;;;4.57;;
58354;SDS011;44160;49.080;19.302;2023-06-26T06:13:30;5.35;;;4.20;;
58354;SDS011;44160;49.080;19.302;2023-06-26T06:15:56;5.97;;;4.38;;
58354;SDS011;44160;49.080;19.302;2023-06-26T06:18:22;8.98;;;4.75;;
58354;SDS011;44160;49.080;19.302;2023-06-26T06:20:48;6.55;;;4.30;;
58354;SDS011;44160;49.080;19.302;2023-06-26T06:23:14;7.28;;;4.25;;
58354;SDS011;44160;49.080;19.302;2023-06-26T06:25:41;6.68;;;5.03;;
58354;SDS011;44160;49.080;19.302;2023-06-26T06:28:07;6.93;;;4.65;;
58354;SDS011;44160;49.080;19.302;2023-06-26T06:30:34;5.90;;;4.68;;
58354;SDS011;44160;49.080;19.302;2023-06-26T06:33:00;5.35;;;4.20;;
58354;SDS011;44160;49.080;19.302;2023-06-26T06:35:26;9.38;;;4.38;;
58354;SDS011;44160;49.080;19.302;2023-06-26T06:37:52;7.45;;;4.05;;
58354;SDS011;44160;49.080;19.302;2023-06-26T06:40:18;7.07;;;3.92;;
58354;SDS011;44160;49.080;19.302;2023-06-26T06:42:44;4.28;;;3.85;;
58354;SDS011;44160;49.080;19.302;2023-06-26T06:45:10;4.13;;;3.50;;
58354;SDS011;44160;49.080;19.302;2023-06-26T06:47:36;6.85;;;4.20;;
58354;SDS011;44160;49.080;19.302;2023-06-26T06:50:02;5.50;;;3.88;;
58354;SDS011;44160;49.080;19.302;2023-06-26T06:52:33;8.57;;;3.65;;
58354;SDS011;44160;49.080;19.302;2023-06-26T06:54:59;4.88;;;3.72;;
58354;SDS011;44160;49.080;19.302;2023-06-26T06:57:32;4.97;;;4.00;;
58354;SDS011;44160;49.080;19.302;2023-06-26T07:00:01;4.13;;;3.43;;
58354;SDS011;44160;49.080;19.302;2023-06-26T07:02:29;5.25;;;3.92;;
58354;SDS011;44160;49.080;19.302;2023-06-26T07:04:55;4.18;;;3.22;;
58354;SDS011;44160;49.080;19.302;2023-06-26T07:07:21;4.93;;;3.67;;
58354;SDS011;44160;49.080;19.302;2023-06-26T07:09:47;7.25;;;3.85;;
58354;SDS011;44160;49.080;19.302;2023-06-26T07:12:13;6.57;;;3.53;;
58354;SDS011;44160;49.080;19.302;2023-06-26T07:14:39;6.00;;;3.55;;
58354;SDS011;44160;49.080;19.302;2023-06-26T07:17:05;5.47;;;3.45;;
58354;SDS011;44160;49.080;19.302;2023-06-26T07:19:31;7.68;;;3.80;;
58354;SDS011;44160;49.080;19.302;2023-06-26T07:21:57;5.03;;;3.67;;
58354;SDS011;44160;49.080;19.302;2023-06-26T07:24:23;4.03;;;3.55;;
58354;SDS011;44160;49.080;19.302;2023-06-26T07:26:49;7.80;;;3.90;;
58354;SDS011;44160;49.080;19.302;2023-06-26T07:29:15;5.47;;;3.70;;
58354;SDS011;44160;49.080;19.302;2023-06-26T07:31:41;6.13;;;3.20;;
58354;SDS011;44160;49.080;19.302;2023-06-26T07:34:09;5.20;;;3.75;;
58354;SDS011;44160;49.080;19.302;2023-06-26T07:36:35;4.78;;;3.20;;
58354;SDS011;44160;49.080;19.302;2023-06-26T07:39:01;3.90;;;3.35;;
58354;SDS011;44160;49.080;19.302;2023-06-26T07:41:27;3.55;;;3.25;;
58354;SDS011;44160;49.080;19.302;2023-06-26T07:43:58;3.75;;;3.20;;
58354;SDS011;44160;49.080;19.302;2023-06-26T07:46:24;4.47;;;3.60;;
58354;SDS011;44160;49.080;19.302;2023-06-26T07:48:50;4.97;;;3.53;;
58354;SDS011;44160;49.080;19.302;2023-06-26T07:51:16;4.68;;;3.10;;
58354;SDS011;44160;49.080;19.302;2023-06-26T07:53:42;5.35;;;3.53;;
58354;SDS011;44160;49.080;19.302;2023-06-26T07:56:09;8.40;;;3.53;;
58354;SDS011;44160;49.080;19.302;2023-06-26T07:58:35;5.10;;;2.90;;
58354;SDS011;44160;49.080;19.302;2023-06-26T08:01:01;3.63;;;2.95;;
58354;SDS011;44160;49.080;19.302;2023-06-26T08:03:27;4.38;;;3.25;;
58354;SDS011;44160;49.080;19.302;2023-06-26T08:05:53;5.78;;;3.58;;
58354;SDS011;44160;49.080;19.302;2023-06-26T08:08:19;4.18;;;3.30;;
58354;SDS011;44160;49.080;19.302;2023-06-26T08:10:45;3.50;;;3.10;;
58354;SDS011;44160;49.080;19.302;2023-06-26T08:13:11;4.07;;;3.10;;
58354;SDS011;44160;49.080;19.302;2023-06-26T08:15:38;5.32;;;2.88;;
58354;SDS011;44160;49.080;19.302;2023-06-26T08:18:04;3.63;;;3.22;;
58354;SDS011;44160;49.080;19.302;2023-06-26T08:20:31;3.65;;;3.08;;
58354;SDS011;44160;49.080;19.302;2023-06-26T08:22:57;3.95;;;2.78;;
58354;SDS011;44160;49.080;19.302;2023-06-26T08:25:23;3.47;;;3.00;;
58354;SDS011;44160;49.080;19.302;2023-06-26T08:27:49;4.10;;;3.05;;
58354;SDS011;44160;49.080;19.302;2023-06-26T08:30:17;3.55;;;2.75;;
58354;SDS011;44160;49.080;19.302;2023-06-26T08:32:43;3.20;;;2.85;;
58354;SDS011;44160;49.080;19.302;2023-06-26T08:35:09;6.72;;;2.92;;
58354;SDS011;44160;49.080;19.302;2023-06-26T08:37:35;3.58;;;2.60;;
58354;SDS011;44160;49.080;19.302;2023-06-26T08:40:01;3.92;;;2.70;;
58354;SDS011;44160;49.080;19.302;2023-06-26T08:42:27;3.25;;;2.60;;
58354;SDS011;44160;49.080;19.302;2023-06-26T08:44:53;3.22;;;2.47;;
58354;SDS011;44160;49.080;19.302;2023-06-26T08:47:19;3.35;;;2.20;;
58354;SDS011;44160;49.080;19.302;2023-06-26T08:52:33;3.78;;;2.60;;
58354;SDS011;44160;49.080;19.302;2023-06-26T08:55:02;3.38;;;2.60;;
58354;SDS011;44160;49.080;19.302;2023-06-26T08:57:29;4.25;;;3.05;;
58354;SDS011;44160;49.080;19.302;2023-06-26T08:59:56;4.25;;;2.42;;
58354;SDS011;44160;49.080;19.302;2023-06-26T09:02:25;5.03;;;2.53;;
58354;SDS011;44160;49.080;19.302;2023-06-26T09:04:52;5.18;;;2.72;;
58354;SDS011;44160;49.080;19.302;2023-06-26T09:07:18;4.60;;;2.45;;
58354;SDS011;44160;49.080;19.302;2023-06-26T09:09:44;3.30;;;2.58;;
58354;SDS011;44160;49.080;19.302;2023-06-26T09:12:10;5.60;;;2.60;;
58354;SDS011;44160;49.080;19.302;2023-06-26T09:14:37;3.97;;;2.85;;
58354;SDS011;44160;49.080;19.302;2023-06-26T09:17:03;3.63;;;2.53;;
58354;SDS011;44160;49.080;19.302;2023-06-26T09:19:29;3.90;;;2.63;;
58354;SDS011;44160;49.080;19.302;2023-06-26T09:21:56;3.65;;;2.22;;
58354;SDS011;44160;49.080;19.302;2023-06-26T09:24:22;2.95;;;2.33;;
58354;SDS011;44160;49.080;19.302;2023-06-26T09:26:50;5.57;;;2.60;;
58354;SDS011;44160;49.080;19.302;2023-06-26T09:29:17;3.28;;;2.42;;
58354;SDS011;44160;49.080;19.302;2023-06-26T09:31:43;3.17;;;2.50;;
58354;SDS011;44160;49.080;19.302;2023-06-26T09:34:12;7.38;;;2.92;;
58354;SDS011;44160;49.080;19.302;2023-06-26T09:36:38;4.35;;;2.38;;
58354;SDS011;44160;49.080;19.302;2023-06-26T09:39:10;3.80;;;2.63;;
58354;SDS011;44160;49.080;19.302;2023-06-26T09:41:36;2.85;;;2.58;;
58354;SDS011;44160;49.080;19.302;2023-06-26T09:44:05;4.17;;;2.70;;
58354;SDS011;44160;49.080;19.302;2023-06-26T09:46:32;4.25;;;2.72;;
58354;SDS011;44160;49.080;19.302;2023-06-26T09:49:08;3.67;;;2.70;;
58354;SDS011;44160;49.080;19.302;2023-06-26T09:51:39;3.13;;;2.83;;
58354;SDS011;44160;49.080;19.302;2023-06-26T09:54:06;3.10;;;2.65;;
58354;SDS011;44160;49.080;19.302;2023-06-26T09:56:32;3.70;;;2.83;;
58354;SDS011;44160;49.080;19.302;2023-06-26T09:59:00;4.47;;;3.17;;
58354;SDS011;44160;49.080;19.302;2023-06-26T10:01:26;6.15;;;3.05;;
58354;SDS011;44160;49.080;19.302;2023-06-26T10:03:54;3.63;;;2.65;;
58354;SDS011;44160;49.080;19.302;2023-06-26T10:06:27;3.83;;;2.93;;
58354;SDS011;44160;49.080;19.302;2023-06-26T10:08:54;3.35;;;3.05;;
58354;SDS011;44160;49.080;19.302;2023-06-26T10:11:21;3.45;;;2.67;;
58354;SDS011;44160;49.080;19.302;2023-06-26T10:13:49;5.07;;;2.85;;
58354;SDS011;44160;49.080;19.302;2023-06-26T10:16:26;3.15;;;2.60;;
58354;SDS011;44160;49.080;19.302;2023-06-26T10:18:53;5.05;;;2.75;;
58354;SDS011;44160;49.080;19.302;2023-06-26T10:21:22;3.72;;;2.65;;
58354;SDS011;44160;49.080;19.302;2023-06-26T10:23:49;3.58;;;2.75;;
58354;SDS011;44160;49.080;19.302;2023-06-26T10:26:17;3.92;;;2.63;;
58354;SDS011;44160;49.080;19.302;2023-06-26T10:28:52;3.50;;;2.58;;
58354;SDS011;44160;49.080;19.302;2023-06-26T10:31:36;3.92;;;2.88;;
58354;SDS011;44160;49.080;19.302;2023-06-26T10:34:03;3.95;;;2.67;;
58354;SDS011;44160;49.080;19.302;2023-06-26T10:36:31;6.28;;;2.70;;
58354;SDS011;44160;49.080;19.302;2023-06-26T10:38:58;3.00;;;2.70;;
58354;SDS011;44160;49.080;19.302;2023-06-26T10:41:28;3.83;;;2.58;;
58354;SDS011;44160;49.080;19.302;2023-06-26T10:46:29;3.60;;;2.60;;
58354;SDS011;44160;49.080;19.302;2023-06-26T10:48:59;2.97;;;2.35;;
58354;SDS011;44160;49.080;19.302;2023-06-26T10:51:27;4.38;;;3.08;;
58354;SDS011;44160;49.080;19.302;2023-06-26T10:53:56;9.23;;;3.47;;
58354;SDS011;44160;49.080;19.302;2023-06-26T10:59:14;4.68;;;2.65;;
58354;SDS011;44160;49.080;19.302;2023-06-26T11:02:05;3.67;;;2.65;;
58354;SDS011;44160;49.080;19.302;2023-06-26T11:04:50;5.13;;;2.95;;
58354;SDS011;44160;49.080;19.302;2023-06-26T11:07:23;3.97;;;2.50;;
58354;SDS011;44160;49.080;19.302;2023-06-26T11:09:59;10.27;;;2.83;;
58354;SDS011;44160;49.080;19.302;2023-06-26T11:15:08;4.38;;;2.72;;
58354;SDS011;44160;49.080;19.302;2023-06-26T11:17:35;3.75;;;2.75;;
58354;SDS011;44160;49.080;19.302;2023-06-26T11:20:02;4.47;;;2.58;;
58354;SDS011;44160;49.080;19.302;2023-06-26T11:22:29;4.03;;;3.03;;
58354;SDS011;44160;49.080;19.302;2023-06-26T11:24:59;3.30;;;2.80;;
58354;SDS011;44160;49.080;19.302;2023-06-26T11:27:30;6.10;;;3.00;;
58354;SDS011;44160;49.080;19.302;2023-06-26T11:29:56;5.60;;;2.92;;
58354;SDS011;44160;49.080;19.302;2023-06-26T11:32:22;5.20;;;2.65;;
58354;SDS011;44160;49.080;19.302;2023-06-26T11:34:48;3.30;;;2.80;;
58354;SDS011;44160;49.080;19.302;2023-06-26T11:37:19;3.83;;;2.78;;
58354;SDS011;44160;49.080;19.302;2023-06-26T11:39:46;5.90;;;2.95;;
58354;SDS011;44160;49.080;19.302;2023-06-26T11:42:12;3.97;;;2.67;;
58354;SDS011;44160;49.080;19.302;2023-06-26T11:44:41;4.32;;;2.92;;
58354;SDS011;44160;49.080;19.302;2023-06-26T11:47:14;4.20;;;3.17;;
58354;SDS011;44160;49.080;19.302;2023-06-26T11:49:44;3.95;;;3.30;;
58354;SDS011;44160;49.080;19.302;2023-06-26T11:52:11;3.22;;;2.80;;
58354;SDS011;44160;49.080;19.302;2023-06-26T11:54:37;5.38;;;2.90;;
58354;SDS011;44160;49.080;19.302;2023-06-26T11:57:04;3.92;;;2.85;;
58354;SDS011;44160;49.080;19.302;2023-06-26T11:59:33;3.95;;;3.00;;
58354;SDS011;44160;49.080;19.302;2023-06-26T12:02:00;5.47;;;3.25;;
58354;SDS011;44160;49.080;19.302;2023-06-26T12:04:30;7.28;;;3.03;;
58354;SDS011;44160;49.080;19.302;2023-06-26T12:06:56;3.25;;;2.70;;
58354;SDS011;44160;49.080;19.302;2023-06-26T12:09:22;3.50;;;2.42;;
58354;SDS011;44160;49.080;19.302;2023-06-26T12:11:49;3.80;;;2.78;;
58354;SDS011;44160;49.080;19.302;2023-06-26T12:14:17;4.13;;;3.10;;
58354;SDS011;44160;49.080;19.302;2023-06-26T12:16:45;3.13;;;2.47;;
58354;SDS011;44160;49.080;19.302;2023-06-26T12:19:12;4.22;;;3.25;;
58354;SDS011;44160;49.080;19.302;2023-06-26T12:24:17;5.07;;;2.97;;
58354;SDS011;44160;49.080;19.302;2023-06-26T12:26:43;3.60;;;2.75;;
58354;SDS011;44160;49.080;19.302;2023-06-26T12:29:11;6.57;;;2.97;;
58354;SDS011;44160;49.080;19.302;2023-06-26T12:31:41;5.93;;;3.15;;
58354;SDS011;44160;49.080;19.302;2023-06-26T12:34:11;4.05;;;2.92;;
58354;SDS011;44160;49.080;19.302;2023-06-26T12:36:43;4.82;;;2.83;;
58354;SDS011;44160;49.080;19.302;2023-06-26T12:39:10;4.05;;;3.08;;
58354;SDS011;44160;49.080;19.302;2023-06-26T12:41:52;4.10;;;2.78;;
58354;SDS011;44160;49.080;19.302;2023-06-26T12:44:19;6.70;;;3.03;;
58354;SDS011;44160;49.080;19.302;2023-06-26T12:46:49;4.30;;;2.63;;
58354;SDS011;44160;49.080;19.302;2023-06-26T12:49:16;4.20;;;3.05;;
58354;SDS011;44160;49.080;19.302;2023-06-26T12:51:43;3.75;;;3.00;;
58354;SDS011;44160;49.080;19.302;2023-06-26T12:54:09;3.53;;;2.80;;
58354;SDS011;44160;49.080;19.302;2023-06-26T12:56:35;5.40;;;3.00;;
58354;SDS011;44160;49.080;19.302;2023-06-26T12:59:01;4.82;;;3.33;;
58354;SDS011;44160;49.080;19.302;2023-06-26T13:01:27;5.65;;;3.28;;
58354;SDS011;44160;49.080;19.302;2023-06-26T13:03:53;4.97;;;3.17;;
58354;SDS011;44160;49.080;19.302;2023-06-26T13:06:19;4.78;;;3.50;;
58354;SDS011;44160;49.080;19.302;2023-06-26T13:08:46;3.03;;;2.55;;
58354;SDS011;44160;49.080;19.302;2023-06-26T13:11:13;5.70;;;2.90;;
58354;SDS011;44160;49.080;19.302;2023-06-26T13:13:41;3.50;;;3.00;;
58354;SDS011;44160;49.080;19.302;2023-06-26T13:16:07;3.65;;;2.85;;
58354;SDS011;44160;49.080;19.302;2023-06-26T13:18:33;4.20;;;3.03;;
58354;SDS011;44160;49.080;19.302;2023-06-26T13:21:00;3.95;;;3.15;;
58354;SDS011;44160;49.080;19.302;2023-06-26T13:23:26;4.60;;;3.08;;
58354;SDS011;44160;49.080;19.302;2023-06-26T13:26:02;4.50;;;2.95;;
58354;SDS011;44160;49.080;19.302;2023-06-26T13:28:28;7.90;;;3.40;;
58354;SDS011;44160;49.080;19.302;2023-06-26T13:30:54;6.80;;;3.28;;
58354;SDS011;44160;49.080;19.302;2023-06-26T13:33:20;3.63;;;3.00;;
58354;SDS011;44160;49.080;19.302;2023-06-26T13:35:46;4.43;;;3.30;;
58354;SDS011;44160;49.080;19.302;2023-06-26T13:38:12;3.63;;;2.85;;
58354;SDS011;44160;49.080;19.302;2023-06-26T13:40:38;4.00;;;3.45;;
58354;SDS011;44160;49.080;19.302;2023-06-26T13:43:04;9.77;;;3.20;;
58354;SDS011;44160;49.080;19.302;2023-06-26T13:45:30;3.95;;;3.25;;
58354;SDS011;44160;49.080;19.302;2023-06-26T13:47:57;4.93;;;3.53;;
58354;SDS011;44160;49.080;19.302;2023-06-26T13:50:26;3.90;;;3.00;;
58354;SDS011;44160;49.080;19.302;2023-06-26T13:52:55;4.15;;;2.95;;
58354;SDS011;44160;49.080;19.302;2023-06-26T13:55:21;4.43;;;3.35;;
58354;SDS011;44160;49.080;19.302;2023-06-26T13:57:47;5.45;;;3.28;;
58354;SDS011;44160;49.080;19.302;2023-06-26T14:00:16;5.38;;;3.47;;
58354;SDS011;44160;49.080;19.302;2023-06-26T14:02:46;4.55;;;3.50;;
58354;SDS011;44160;49.080;19.302;2023-06-26T14:05:12;4.45;;;3.30;;
58354;SDS011;44160;49.080;19.302;2023-06-26T14:07:38;4.10;;;3.40;;
58354;SDS011;44160;49.080;19.302;2023-06-26T14:10:04;3.95;;;3.13;;
58354;SDS011;44160;49.080;19.302;2023-06-26T14:12:33;4.28;;;3.10;;
58354;SDS011;44160;49.080;19.302;2023-06-26T14:15:00;4.18;;;3.08;;
58354;SDS011;44160;49.080;19.302;2023-06-26T14:17:26;4.93;;;3.20;;
58354;SDS011;44160;49.080;19.302;2023-06-26T14:19:52;5.35;;;3.45;;
58354;SDS011;44160;49.080;19.302;2023-06-26T14:22:18;4.10;;;3.53;;
58354;SDS011;44160;49.080;19.302;2023-06-26T14:24:44;4.25;;;3.50;;
58354;SDS011;44160;49.080;19.302;2023-06-26T14:27:10;5.60;;;3.17;;
58354;SDS011;44160;49.080;19.302;2023-06-26T14:29:37;3.88;;;3.03;;
58354;SDS011;44160;49.080;19.302;2023-06-26T14:32:03;4.00;;;3.15;;
58354;SDS011;44160;49.080;19.302;2023-06-26T14:34:29;4.85;;;3.00;;
58354;SDS011;44160;49.080;19.302;2023-06-26T14:36:55;6.93;;;3.30;;
58354;SDS011;44160;49.080;19.302;2023-06-26T14:39:21;3.67;;;3.15;;
58354;SDS011;44160;49.080;19.302;2023-06-26T14:41:47;4.32;;;3.35;;
58354;SDS011;44160;49.080;19.302;2023-06-26T14:44:15;5.57;;;3.10;;
58354;SDS011;44160;49.080;19.302;2023-06-26T14:46:41;3.53;;;2.90;;